createdAt,value
2022-09-12T00:00:29.417Z,19.00
2022-09-12T00:02:56.257Z,19.00
2022-09-12T00:05:23.063Z,19.00
2022-09-12T00:07:50.605Z,19.10
2022-09-12T00:10:18.020Z,19.10
2022-09-12T00:12:44.759Z,19.10
2022-09-12T00:15:13.615Z,19.10
2022-09-12T00:17:43.388Z,19.00
2022-09-12T00:20:11.330Z,19.00
2022-09-12T00:22:45.162Z,19.10
2022-09-12T00:25:12.181Z,19.00
2022-09-12T00:27:38.837Z,18.90
2022-09-12T00:30:06.249Z,18.90
2022-09-12T00:32:34.232Z,19.00
2022-09-12T00:35:02.811Z,18.90
2022-09-12T00:37:29.477Z,18.90
2022-09-12T00:39:56.477Z,18.90
2022-09-12T00:42:24.204Z,18.90
2022-09-12T00:44:52.356Z,18.80
2022-09-12T00:47:31.189Z,18.90
2022-09-12T00:50:13.871Z,18.80
2022-09-12T00:52:46.773Z,18.90
2022-09-12T00:55:21.786Z,18.90
2022-09-12T00:57:57.592Z,18.90
2022-09-12T01:00:26.378Z,18.80
2022-09-12T01:02:56.698Z,18.70
2022-09-12T01:05:23.761Z,18.70
2022-09-12T01:07:52.327Z,18.60
2022-09-12T01:10:19.952Z,18.60
2022-09-12T01:12:47.911Z,18.60
2022-09-12T01:15:14.654Z,18.50
2022-09-12T01:18:10.052Z,18.60
2022-09-12T01:21:11.521Z,18.50
2022-09-12T01:24:02.377Z,18.60
2022-09-12T01:27:06.604Z,18.40
2022-09-12T01:30:11.059Z,18.50
2022-09-12T01:32:54.912Z,18.50
2022-09-12T01:36:03.733Z,18.40
2022-09-12T01:38:39.662Z,18.40
2022-09-12T01:41:15.425Z,18.40
2022-09-12T01:43:51.930Z,18.40
2022-09-12T01:46:32.017Z,18.40
2022-09-12T01:49:12.338Z,18.40
2022-09-12T01:51:41.401Z,18.50
2022-09-12T01:54:34.001Z,18.40
2022-09-12T01:57:08.607Z,18.40
2022-09-12T01:59:43.491Z,18.30
2022-09-12T02:02:40.884Z,18.30
2022-09-12T02:05:25.252Z,18.40
2022-09-12T02:07:57.321Z,18.40
2022-09-12T02:10:32.478Z,18.50
2022-09-12T02:13:16.908Z,18.50
2022-09-12T02:15:49.430Z,18.60
2022-09-12T02:18:18.663Z,18.60
2022-09-12T02:20:49.190Z,18.60
2022-09-12T02:23:25.050Z,18.50
2022-09-12T02:25:58.889Z,18.50
2022-09-12T02:28:30.947Z,18.40
2022-09-12T02:31:06.637Z,18.40
2022-09-12T02:33:51.921Z,18.40
2022-09-12T02:36:27.613Z,18.40
2022-09-12T02:38:56.161Z,18.40
2022-09-12T02:41:23.487Z,18.50
2022-09-12T02:43:51.481Z,18.40
2022-09-12T02:46:26.554Z,18.50
2022-09-12T02:48:54.064Z,18.30
2022-09-12T02:51:23.782Z,18.20
2022-09-12T02:53:51.279Z,18.30
2022-09-12T02:56:25.686Z,18.20
2022-09-12T02:58:56.469Z,18.30
2022-09-12T03:01:40.964Z,18.30
2022-09-12T03:04:27.215Z,18.20
2022-09-12T03:07:16.871Z,18.10
2022-09-12T03:09:44.111Z,18.20
2022-09-12T03:12:13.672Z,18.30
2022-09-12T03:15:01.762Z,18.20
2022-09-12T03:17:56.861Z,18.10
2022-09-12T03:20:54.452Z,18.10
2022-09-12T03:23:59.032Z,18.00
2022-09-12T03:26:32.748Z,18.00
2022-09-12T03:29:01.185Z,18.00
2022-09-12T03:31:28.002Z,17.90
2022-09-12T03:33:54.718Z,17.80
2022-09-12T03:36:24.524Z,17.80
2022-09-12T03:38:52.275Z,17.80
2022-09-12T03:41:19.394Z,17.80
2022-09-12T03:43:46.431Z,17.90
2022-09-12T03:46:13.672Z,17.90
2022-09-12T03:48:41.271Z,17.70
2022-09-12T03:51:10.021Z,17.70
2022-09-12T03:53:37.020Z,17.70
2022-09-12T03:56:09.822Z,17.70
2022-09-12T03:58:37.486Z,17.70
2022-09-12T04:01:12.906Z,17.80
2022-09-12T04:03:44.575Z,17.80
2022-09-12T04:06:13.868Z,17.70
2022-09-12T04:08:42.422Z,17.80
2022-09-12T04:11:12.964Z,17.90
2022-09-12T04:13:41.097Z,17.80
2022-09-12T04:16:08.610Z,17.70
2022-09-12T04:18:35.634Z,17.60
2022-09-12T04:21:07.387Z,17.60
2022-09-12T04:23:34.511Z,17.50
2022-09-12T04:26:02.969Z,17.60
2022-09-12T04:28:30.481Z,17.60
2022-09-12T04:31:07.551Z,17.70
2022-09-12T04:33:35.254Z,17.70
2022-09-12T04:36:11.299Z,17.70
2022-09-12T04:38:39.019Z,17.70
2022-09-12T04:41:22.252Z,17.70
2022-09-12T04:43:53.128Z,17.50
2022-09-12T04:46:20.519Z,17.60
2022-09-12T04:48:48.396Z,17.50
2022-09-12T04:51:17.819Z,17.50
2022-09-12T04:53:49.721Z,17.40
2022-09-12T04:56:16.870Z,17.50
2022-09-12T04:58:43.689Z,17.40
2022-09-12T05:01:12.884Z,17.40
2022-09-12T05:03:40.867Z,17.50
2022-09-12T05:06:10.060Z,17.50
2022-09-12T05:08:37.275Z,17.50
2022-09-12T05:11:10.230Z,17.70
2022-09-12T05:13:36.959Z,17.80
2022-09-12T05:16:05.418Z,18.10
2022-09-12T05:18:34.032Z,18.00
2022-09-12T05:21:02.488Z,18.10
2022-09-12T05:23:29.936Z,18.20
2022-09-12T05:25:58.368Z,18.30
2022-09-12T05:28:29.951Z,18.40
2022-09-12T05:31:05.403Z,18.40
2022-09-12T05:33:33.435Z,18.60
2022-09-12T05:36:00.228Z,18.70
2022-09-12T05:38:28.416Z,18.70
2022-09-12T05:41:04.108Z,18.70
2022-09-12T05:43:30.746Z,18.80
2022-09-12T05:46:08.893Z,18.70
2022-09-12T05:48:37.108Z,18.70
2022-09-12T05:51:08.821Z,18.90
2022-09-12T05:53:37.471Z,19.00
2022-09-12T05:56:11.088Z,19.10
2022-09-12T05:58:40.801Z,19.00
2022-09-12T06:01:12.950Z,18.90
2022-09-12T06:03:48.423Z,18.80
2022-09-12T06:06:16.786Z,18.90
2022-09-12T06:08:46.713Z,18.80
2022-09-12T06:11:15.842Z,18.60
2022-09-12T06:13:43.363Z,18.50
2022-09-12T06:16:15.813Z,18.40
2022-09-12T06:18:47.232Z,18.50
2022-09-12T06:21:14.584Z,18.60
2022-09-12T06:23:41.676Z,18.60
2022-09-12T06:26:10.728Z,18.50
2022-09-12T06:28:39.685Z,18.50
2022-09-12T06:31:09.691Z,18.50
2022-09-12T06:33:39.019Z,18.50
2022-09-12T06:36:12.057Z,16.60
2022-09-12T06:38:40.875Z,15.70
2022-09-12T06:41:10.637Z,15.30
2022-09-12T06:43:37.370Z,15.70
2022-09-12T06:46:04.269Z,15.80
2022-09-12T06:48:32.178Z,15.60
2022-09-12T06:51:01.205Z,15.90
2022-09-12T06:53:29.159Z,16.20
2022-09-12T06:56:04.972Z,16.20
2022-09-12T06:58:31.843Z,16.30
2022-09-12T07:01:10.162Z,16.80
2022-09-12T07:03:38.051Z,17.30
2022-09-12T07:06:07.338Z,17.70
2022-09-12T07:08:34.630Z,18.10
2022-09-12T07:11:28.122Z,18.70
2022-09-12T07:13:56.564Z,19.00
2022-09-12T07:16:24.078Z,19.30
2022-09-12T07:18:56.123Z,19.60
2022-09-12T07:21:22.978Z,19.20
2022-09-12T07:23:51.839Z,19.40
2022-09-12T07:26:19.023Z,20.00
2022-09-12T07:28:45.716Z,20.20
2022-09-12T07:31:16.623Z,20.70
2022-09-12T07:33:43.747Z,21.30
2022-09-12T07:36:16.199Z,21.10
2022-09-12T07:38:44.077Z,21.30
2022-09-12T07:41:11.929Z,21.20
2022-09-12T07:43:38.744Z,21.70
2022-09-12T07:46:05.927Z,21.60
2022-09-12T07:48:32.658Z,21.50
2022-09-12T07:51:03.431Z,21.20
2022-09-12T07:53:35.992Z,21.20
2022-09-12T07:56:05.486Z,21.30
2022-09-12T07:58:33.776Z,21.30
2022-09-12T08:01:08.953Z,21.80
2022-09-12T08:03:42.622Z,21.70
2022-09-12T08:06:11.899Z,21.80
2022-09-12T08:08:40.440Z,22.00
2022-09-12T08:11:10.224Z,21.70
2022-09-12T08:13:39.393Z,21.50
2022-09-12T08:16:08.560Z,22.00
2022-09-12T08:18:36.418Z,22.40
2022-09-12T08:21:24.971Z,22.10
2022-09-12T08:23:54.122Z,22.10
2022-09-12T08:26:21.188Z,22.10
2022-09-12T08:28:48.458Z,22.00
2022-09-12T08:31:18.301Z,22.30
2022-09-12T08:33:45.300Z,22.10
2022-09-12T08:36:21.315Z,21.70
2022-09-12T08:38:50.034Z,21.50
2022-09-12T08:41:30.508Z,21.80
2022-09-12T08:44:34.962Z,22.10
2022-09-12T08:47:10.525Z,21.90
2022-09-12T08:50:10.383Z,21.60
2022-09-12T08:52:52.042Z,21.80
2022-09-12T08:55:33.397Z,21.70
2022-09-12T08:58:17.063Z,22.00
2022-09-12T09:01:12.734Z,21.90
2022-09-12T09:04:17.514Z,21.60
2022-09-12T09:07:02.397Z,21.50
2022-09-12T09:09:39.964Z,21.70
2022-09-12T09:12:24.649Z,21.60
2022-09-12T09:15:05.127Z,21.60
2022-09-12T09:17:37.936Z,21.70
2022-09-12T09:20:30.806Z,21.60
2022-09-12T09:23:16.115Z,21.60
2022-09-12T09:25:59.224Z,21.90
2022-09-12T09:28:42.364Z,21.80
2022-09-12T09:31:23.898Z,21.60
2022-09-12T09:33:54.217Z,21.70
2022-09-12T09:36:22.475Z,21.80
2022-09-12T09:39:06.088Z,21.80
2022-09-12T09:41:44.628Z,21.60
2022-09-12T09:44:11.708Z,21.70
2022-09-12T09:46:38.741Z,21.90
2022-09-12T09:49:07.186Z,21.90
2022-09-12T09:51:39.742Z,22.10
2022-09-12T09:54:25.532Z,22.10
2022-09-12T09:56:52.389Z,21.80
2022-09-12T09:59:32.513Z,21.50
2022-09-12T10:02:24.257Z,21.60
2022-09-12T10:04:57.613Z,21.70
2022-09-12T10:07:25.925Z,21.80
2022-09-12T10:10:17.225Z,21.70
2022-09-12T10:12:46.178Z,21.90
2022-09-12T10:15:27.626Z,21.80
2022-09-12T10:18:10.553Z,21.80
2022-09-12T10:20:45.297Z,21.80
2022-09-12T10:23:35.422Z,21.70
2022-09-12T10:26:05.193Z,21.80
2022-09-12T10:28:51.348Z,21.90
2022-09-12T10:31:30.000Z,22.00
2022-09-12T10:34:00.090Z,22.00
2022-09-12T10:36:39.552Z,22.00
2022-09-12T10:39:07.204Z,21.90
2022-09-12T10:41:40.484Z,22.10
2022-09-12T10:44:31.095Z,22.10
2022-09-12T10:47:00.627Z,22.50
2022-09-12T10:49:31.818Z,22.40
2022-09-12T10:52:23.372Z,21.80
2022-09-12T10:54:53.588Z,22.40
2022-09-12T10:57:35.460Z,22.30
2022-09-12T11:00:16.975Z,22.10
2022-09-12T11:03:15.451Z,22.30
2022-09-12T11:06:01.706Z,22.40
2022-09-12T11:08:52.078Z,22.50
2022-09-12T11:11:22.514Z,22.30
2022-09-12T11:13:58.471Z,22.10
2022-09-12T11:16:50.551Z,21.90
2022-09-12T11:19:50.979Z,22.10
2022-09-12T11:22:32.063Z,22.80
2022-09-12T11:25:12.940Z,22.50
2022-09-12T11:28:00.387Z,22.40
2022-09-12T11:30:32.140Z,22.50
2022-09-12T11:33:42.697Z,22.60
2022-09-12T11:36:39.307Z,22.60
2022-09-12T11:39:16.168Z,23.00
2022-09-12T11:41:51.145Z,22.50
2022-09-12T11:44:24.396Z,22.20
2022-09-12T11:46:52.101Z,22.80
2022-09-12T11:49:24.980Z,22.80
2022-09-12T11:52:02.336Z,23.00
2022-09-12T11:54:57.786Z,22.80
2022-09-12T11:57:28.416Z,22.70
2022-09-12T12:00:02.132Z,22.70
2022-09-12T12:02:43.852Z,22.90
2022-09-12T12:05:20.353Z,22.70
2022-09-12T12:07:56.146Z,22.70
2022-09-12T12:10:27.378Z,22.60
2022-09-12T12:12:56.582Z,22.60
2022-09-12T12:15:25.506Z,22.90
2022-09-12T12:18:18.988Z,23.00
2022-09-12T12:20:46.236Z,22.90
2022-09-12T12:23:29.244Z,22.80
2022-09-12T12:25:57.774Z,22.80
2022-09-12T12:28:42.766Z,23.20
2022-09-12T12:31:11.366Z,23.20
2022-09-12T12:33:38.006Z,23.10
2022-09-12T12:36:11.341Z,23.10
2022-09-12T12:38:39.846Z,23.00
2022-09-12T12:41:18.656Z,22.70
2022-09-12T12:43:47.938Z,22.80
2022-09-12T12:46:17.388Z,23.00
2022-09-12T12:48:52.013Z,23.30
2022-09-12T12:51:43.476Z,23.00
2022-09-12T12:54:30.250Z,23.00
2022-09-12T12:57:15.273Z,22.90
2022-09-12T12:59:54.517Z,23.40
2022-09-12T13:02:37.370Z,23.50
2022-09-12T13:05:18.664Z,23.40
2022-09-12T13:07:45.907Z,23.10
2022-09-12T13:10:23.996Z,23.40
2022-09-12T13:12:51.963Z,23.40
2022-09-12T13:15:40.305Z,23.20
2022-09-12T13:18:24.381Z,23.30
2022-09-12T13:21:17.455Z,23.20
2022-09-12T13:23:46.316Z,23.30
2022-09-12T13:26:21.861Z,23.20
2022-09-12T13:29:14.304Z,23.20
2022-09-12T13:31:46.639Z,23.50
2022-09-12T13:34:20.951Z,23.10
2022-09-12T13:37:12.560Z,23.00
2022-09-12T13:39:49.752Z,23.10
2022-09-12T13:42:38.246Z,23.40
2022-09-12T13:45:27.011Z,23.30
2022-09-12T13:47:58.853Z,23.10
2022-09-12T13:50:39.470Z,23.30
2022-09-12T13:53:12.584Z,23.10
2022-09-12T13:55:47.345Z,23.30
2022-09-12T13:58:33.941Z,23.30
2022-09-12T14:01:21.242Z,23.10
2022-09-12T14:04:16.456Z,23.60
2022-09-12T14:06:51.884Z,23.60
2022-09-12T14:09:38.569Z,23.60
2022-09-12T14:12:18.235Z,23.60
2022-09-12T14:14:49.925Z,23.30
2022-09-12T14:17:31.491Z,23.10
2022-09-12T14:20:03.802Z,23.00
2022-09-12T14:22:31.184Z,23.30
2022-09-12T14:24:59.605Z,23.00
2022-09-12T14:27:37.299Z,23.20
2022-09-12T14:30:21.682Z,23.30
2022-09-12T14:33:10.242Z,23.40
2022-09-12T14:35:42.642Z,23.30
2022-09-12T14:38:15.861Z,23.50
2022-09-12T14:40:59.833Z,23.20
2022-09-12T14:43:31.608Z,23.20
2022-09-12T14:46:02.243Z,23.50
2022-09-12T14:48:32.993Z,23.50
2022-09-12T14:51:01.318Z,23.50
2022-09-12T14:53:36.735Z,23.40
2022-09-12T14:56:11.923Z,23.60
2022-09-12T14:58:42.659Z,23.70
2022-09-12T15:01:09.354Z,23.30
2022-09-12T15:03:51.851Z,23.30
2022-09-12T15:06:31.121Z,23.20
2022-09-12T15:09:02.189Z,23.10
2022-09-12T15:11:29.232Z,23.10
2022-09-12T15:13:56.058Z,23.30
2022-09-12T15:16:22.870Z,23.20
2022-09-12T15:18:49.894Z,23.40
2022-09-12T15:21:20.890Z,23.20
2022-09-12T15:23:50.855Z,23.40
2022-09-12T15:26:20.700Z,23.40
2022-09-12T15:28:47.379Z,23.30
2022-09-12T15:31:37.074Z,23.10
2022-09-12T15:34:05.413Z,23.40
2022-09-12T15:36:33.199Z,23.20
2022-09-12T15:38:59.860Z,23.30
2022-09-12T15:41:37.387Z,23.30
2022-09-12T15:44:05.299Z,23.20
2022-09-12T15:46:32.180Z,23.30
2022-09-12T15:48:58.930Z,23.20
2022-09-12T15:51:25.774Z,23.20
2022-09-12T15:53:52.758Z,23.30
2022-09-12T15:56:22.266Z,23.40
2022-09-12T15:58:58.670Z,23.30
2022-09-12T16:01:27.910Z,23.30
2022-09-12T16:03:54.673Z,23.10
2022-09-12T16:06:22.224Z,23.30
2022-09-12T16:08:50.054Z,23.40
2022-09-12T16:11:25.915Z,23.30
2022-09-12T16:13:55.391Z,23.20
2022-09-12T16:16:22.204Z,23.30
2022-09-12T16:18:49.231Z,23.30
2022-09-12T16:21:16.216Z,23.10
2022-09-12T16:23:44.125Z,23.10
2022-09-12T16:26:11.075Z,23.30
2022-09-12T16:28:37.915Z,23.40
2022-09-12T16:31:06.465Z,23.20
2022-09-12T16:33:45.096Z,23.20
2022-09-12T16:36:15.158Z,23.10
2022-09-12T16:38:46.633Z,23.00
2022-09-12T16:41:14.786Z,23.10
2022-09-12T16:43:42.808Z,23.20
2022-09-12T16:46:19.025Z,23.20
2022-09-12T16:48:52.370Z,23.00
2022-09-12T16:51:25.095Z,22.90
2022-09-12T16:53:52.136Z,22.80
2022-09-12T16:56:19.381Z,22.80
2022-09-12T16:58:47.640Z,22.60
2022-09-12T17:01:26.372Z,22.80
2022-09-12T17:03:58.168Z,22.70
2022-09-12T17:06:25.841Z,22.70
2022-09-12T17:08:53.883Z,23.00
2022-09-12T17:11:26.918Z,23.20
2022-09-12T17:14:11.748Z,23.20
2022-09-12T17:16:41.797Z,23.20
2022-09-12T17:19:12.179Z,23.20
2022-09-12T17:21:38.829Z,23.30
2022-09-12T17:24:05.809Z,23.30
2022-09-12T17:26:32.612Z,23.20
2022-09-12T17:28:59.280Z,23.20
2022-09-12T17:31:26.650Z,23.20
2022-09-12T17:34:01.005Z,23.20
2022-09-12T17:36:29.203Z,23.10
2022-09-12T17:38:56.160Z,23.10
2022-09-12T17:41:25.908Z,23.10
2022-09-12T17:43:56.521Z,23.10
2022-09-12T17:46:25.689Z,23.00
2022-09-12T17:48:57.037Z,22.90
2022-09-12T17:51:25.882Z,23.10
2022-09-12T17:54:01.146Z,23.10
2022-09-12T17:56:30.791Z,23.00
2022-09-12T17:58:59.654Z,23.00
2022-09-12T18:01:46.196Z,22.90
2022-09-12T18:04:13.233Z,22.90
2022-09-12T18:06:40.906Z,22.80
2022-09-12T18:09:09.686Z,22.70
2022-09-12T18:11:36.857Z,22.80
2022-09-12T18:14:03.652Z,22.90
2022-09-12T18:16:31.531Z,22.90
2022-09-12T18:19:03.818Z,22.90
2022-09-12T18:21:31.749Z,22.80
2022-09-12T18:24:11.656Z,22.70
2022-09-12T18:26:38.836Z,22.80
2022-09-12T18:29:05.851Z,22.70
2022-09-12T18:31:32.682Z,22.70
2022-09-12T18:34:00.375Z,22.60
2022-09-12T18:36:28.014Z,22.50
2022-09-12T18:38:55.039Z,22.50
2022-09-12T18:41:23.809Z,22.50
2022-09-12T18:43:55.433Z,22.40
2022-09-12T18:46:22.535Z,22.20
2022-09-12T18:48:49.528Z,22.10
2022-09-12T18:51:25.796Z,22.00
2022-09-12T18:53:54.863Z,22.00
2022-09-12T18:56:26.460Z,21.90
2022-09-12T18:58:55.675Z,21.90
2022-09-12T19:01:34.625Z,21.80
2022-09-12T19:04:04.725Z,21.80
2022-09-12T19:06:34.981Z,21.80
2022-09-12T19:09:06.701Z,21.70
2022-09-12T19:11:34.752Z,21.70
2022-09-12T19:14:02.093Z,21.80
2022-09-12T19:16:29.242Z,21.80
2022-09-12T19:18:57.130Z,21.70
2022-09-12T19:21:27.049Z,21.70
2022-09-12T19:23:57.459Z,21.60
2022-09-12T19:26:24.834Z,21.60
2022-09-12T19:28:52.489Z,21.50
2022-09-12T19:31:20.234Z,21.60
2022-09-12T19:33:48.015Z,21.60
2022-09-12T19:36:43.326Z,21.60
2022-09-12T19:39:06.503Z,21.50
2022-09-12T19:41:33.823Z,21.40
2022-09-12T19:44:00.559Z,21.40
2022-09-12T19:46:27.831Z,21.50
2022-09-12T19:48:54.709Z,21.50
2022-09-12T19:51:22.484Z,21.60
2022-09-12T19:53:50.272Z,21.60
2022-09-12T19:56:18.339Z,21.40
2022-09-12T19:58:46.755Z,21.20
2022-09-12T20:01:18.112Z,21.40
2022-09-12T20:03:45.972Z,21.50
2022-09-12T20:06:15.908Z,21.60
2022-09-12T20:08:44.028Z,21.60
2022-09-12T20:11:13.308Z,21.70
2022-09-12T20:13:41.172Z,21.70
2022-09-12T20:16:22.174Z,21.70
2022-09-12T20:18:53.813Z,21.70
2022-09-12T20:21:25.262Z,21.70
2022-09-12T20:23:53.293Z,21.70
2022-09-12T20:26:20.488Z,21.60
2022-09-12T20:28:47.369Z,21.60
2022-09-12T20:31:16.748Z,21.60
2022-09-12T20:33:47.566Z,21.60
2022-09-12T20:36:18.933Z,21.60
2022-09-12T20:38:51.143Z,21.60
2022-09-12T20:41:18.891Z,21.60
2022-09-12T20:43:49.212Z,21.60
2022-09-12T20:46:20.969Z,21.60
2022-09-12T20:48:48.607Z,21.60
2022-09-12T20:51:15.339Z,21.60
2022-09-12T20:53:42.063Z,21.50
2022-09-12T20:56:08.727Z,21.50
2022-09-12T20:58:36.849Z,21.50
2022-09-12T21:01:10.879Z,21.50
2022-09-12T21:03:41.820Z,21.50
2022-09-12T21:06:09.825Z,21.50
2022-09-12T21:08:37.340Z,21.40
2022-09-12T21:11:05.022Z,21.40
2022-09-12T21:13:32.205Z,21.40
2022-09-12T21:16:00.643Z,21.40
2022-09-12T21:18:27.473Z,21.30
2022-09-12T21:20:55.550Z,21.30
2022-09-12T21:23:23.476Z,21.30
2022-09-12T21:25:52.597Z,21.30
2022-09-12T21:28:20.088Z,21.30
2022-09-12T21:30:50.857Z,21.20
2022-09-12T21:33:19.428Z,21.20
2022-09-12T21:35:47.327Z,21.10
2022-09-12T21:38:18.622Z,21.10
2022-09-12T21:40:46.135Z,21.10
2022-09-12T21:43:13.353Z,21.10
2022-09-12T21:45:40.540Z,21.10
2022-09-12T21:48:07.636Z,21.10
2022-09-12T21:50:34.543Z,21.10
2022-09-12T21:53:01.191Z,21.10
2022-09-12T21:55:28.002Z,21.10
2022-09-12T21:57:55.441Z,21.10
2022-09-12T22:00:22.707Z,21.10
2022-09-12T22:02:49.637Z,21.10
2022-09-12T22:05:17.175Z,21.10
2022-09-12T22:07:43.980Z,21.00
2022-09-12T22:10:10.712Z,21.00
2022-09-12T22:12:37.358Z,21.00
2022-09-12T22:15:22.847Z,20.90
2022-09-12T22:17:51.835Z,20.90
2022-09-12T22:20:18.560Z,20.80
2022-09-12T22:23:03.793Z,20.90
2022-09-12T22:25:30.669Z,20.90
2022-09-12T22:27:58.244Z,20.80
2022-09-12T22:30:27.229Z,20.80
2022-09-12T22:32:54.175Z,20.80
2022-09-12T22:35:21.102Z,20.80
2022-09-12T22:37:48.277Z,20.80
2022-09-12T22:40:15.865Z,20.80
2022-09-12T22:42:42.917Z,20.80
2022-09-12T22:45:10.008Z,20.70
2022-09-12T22:47:36.934Z,20.80
2022-09-12T22:50:04.253Z,20.70
2022-09-12T22:52:31.026Z,20.70
2022-09-12T22:54:58.112Z,20.60
2022-09-12T22:57:24.807Z,20.70
2022-09-12T22:59:52.011Z,20.70
2022-09-12T23:02:18.736Z,20.60
2022-09-12T23:04:46.731Z,20.60
2022-09-12T23:07:13.442Z,20.70
2022-09-12T23:09:40.211Z,20.60
2022-09-12T23:12:06.995Z,20.50
2022-09-12T23:14:33.663Z,20.60
2022-09-12T23:17:00.410Z,20.60
2022-09-12T23:19:27.067Z,20.60
2022-09-12T23:21:53.729Z,20.60
2022-09-12T23:24:20.508Z,20.60
2022-09-12T23:26:47.206Z,20.50
2022-09-12T23:29:13.836Z,20.50
2022-09-12T23:31:40.553Z,20.60
2022-09-12T23:34:07.359Z,20.50
2022-09-12T23:36:34.326Z,20.50
2022-09-12T23:39:01.115Z,20.50
2022-09-12T23:41:28.132Z,20.50
2022-09-12T23:43:54.866Z,20.50
2022-09-12T23:46:22.277Z,20.40
2022-09-12T23:48:49.355Z,20.50
2022-09-12T23:51:16.476Z,20.40
2022-09-12T23:53:43.181Z,20.40
2022-09-12T23:56:10.005Z,20.40
2022-09-12T23:58:36.936Z,20.40
